»·PEaware :: N851TX KLKU-MYGW

N851TX :: KLKU-MYGW

FLIGHT INFORMATION

Flight Status: Arrived
Operator: Privately registered:
United States
More flights under this callsign
Pilot: Andrew J. (13363)
Aircraft: Unknown
(TBM9)
More flights by this aircraft type
Origin: KLKU Louisa Co/Freeman
United States
Destination: MYGW West End
Bahamas
More flights between these airports :: More routes between these airports
Route: FAK J109 ILM AR15 BAHAA AR21 CRANS ZWE
File this flight plan on PilotEdge
Remarks:
Altitude:
(Current/Filed)
30,000ft
Speed:
(Current/Filed)
307kts
Departed: 09-Jul-18 08:03 PM
Arrived: 09-Jul-18 10:31 PM
Distance/Time
Traveled:
682nm/2:28
Distance/Time
To Go:
Arrived

Flight Plot

Page will automatically refresh every two minutes.

Flight plan parsing failed; only flown route is shown


Map Options




Map Legend


Flown Route
Filed Route
Departure Airport
Arrival Airport
Navaid (VOR, NDB)
Fix

Horizontal Profiles

Position Reports

Time Latitude Longitude Heading Altitude Ground
Speed
09-Jul-18 20:03 38.009098 -77.977125 82 496ft 0kts
09-Jul-18 20:04 38.009535 -77.972770 82 496ft 83kts
09-Jul-18 20:05 38.011031 -77.930341 111 1997ft 140kts
09-Jul-18 20:06 37.986653 -77.894139 181 3927ft 154kts
09-Jul-18 20:07 37.943485 -77.891162 171 5747ft 158kts
09-Jul-18 20:08 37.899609 -77.884418 172 7399ft 163kts
09-Jul-18 20:09 37.854218 -77.877519 172 9263ft 169kts
09-Jul-18 20:10 37.807753 -77.870447 172 11066ft 169kts
09-Jul-18 20:11 37.759527 -77.863126 172 12832ft 178kts
09-Jul-18 20:12 37.710302 -77.855677 172 14842ft 182kts
09-Jul-18 20:13 37.659727 -77.848019 173 16618ft 188kts
09-Jul-18 20:14 37.607463 -77.840115 172 18502ft 192kts
09-Jul-18 20:15 37.553721 -77.831969 173 20132ft 200kts
09-Jul-18 20:16 37.497311 -77.828762 181 21842ft 206kts
09-Jul-18 20:17 37.439532 -77.829564 181 23477ft 211kts
09-Jul-18 20:18 37.380404 -77.830451 182 24932ft 216kts
09-Jul-18 20:19 37.319457 -77.831372 182 26424ft 223kts
09-Jul-18 20:20 37.257342 -77.832304 182 27968ft 226kts
09-Jul-18 20:21 37.193945 -77.833258 183 29299ft 231kts
09-Jul-18 20:22 37.127829 -77.834267 183 30212ft 249kts
09-Jul-18 20:23 37.053066 -77.835415 182 30219ft 287kts
09-Jul-18 20:24 36.988661 -77.836379 181 30206ft 300kts
09-Jul-18 20:25 36.907077 -77.837563 182 30186ft 274kts
09-Jul-18 20:26 36.836640 -77.838608 182 30218ft 256kts
09-Jul-18 20:27 36.763976 -77.839700 181 29905ft 278kts
09-Jul-18 20:28 36.680664 -77.840927 181 28817ft 317kts
09-Jul-18 20:29 36.590962 -77.842264 181 28215ft 319kts
09-Jul-18 20:30 36.503664 -77.843544 181 28219ft 315kts
09-Jul-18 20:31 36.415825 -77.844863 181 28221ft 316kts
09-Jul-18 20:32 36.327979 -77.846124 181 28219ft 317kts
09-Jul-18 20:33 36.239720 -77.847432 181 28208ft 318kts
09-Jul-18 20:34 36.151571 -77.848724 181 28196ft 318kts
09-Jul-18 20:35 36.066794 -77.849932 181 29262ft 288kts
09-Jul-18 20:36 35.988499 -77.851080 182 30179ft 278kts
09-Jul-18 20:37 35.908155 -77.852263 181 30198ft 298kts
09-Jul-18 20:38 35.828596 -77.853411 181 30200ft 307kts
09-Jul-18 20:39 35.740265 -77.854686 181 29271ft 336kts
09-Jul-18 20:40 35.643930 -77.856103 181 27840ft 355kts
09-Jul-18 20:41 35.544273 -77.857535 181 26378ft 361kts
09-Jul-18 20:42 35.448662 -77.858889 181 26180ft 331kts
09-Jul-18 20:43 35.358756 -77.860172 181 26182ft 317kts
09-Jul-18 20:44 35.270638 -77.861448 181 25728ft 324kts
09-Jul-18 20:45 35.179318 -77.862756 181 24949ft 332kts
09-Jul-18 20:46 35.086514 -77.864070 181 24200ft 334kts
09-Jul-18 20:47 34.996308 -77.865371 181 24188ft 320kts
09-Jul-18 20:48 34.908055 -77.866631 179 24104ft 319kts
09-Jul-18 20:49 34.818441 -77.867870 179 23124ft 327kts
09-Jul-18 20:50 34.727531 -77.869151 179 22330ft 325kts
09-Jul-18 20:51 34.639077 -77.870394 179 22177ft 310kts
09-Jul-18 20:52 34.553976 -77.871583 179 22176ft 303kts
09-Jul-18 20:53 34.470158 -77.872758 179 22176ft 302kts
09-Jul-18 20:54 34.386121 -77.873934 179 22174ft 302kts
09-Jul-18 20:55 34.303539 -77.888459 192 22174ft 303kts
09-Jul-18 20:56 34.223244 -77.911818 192 23050ft 283kts
09-Jul-18 20:57 34.150014 -77.933092 192 24487ft 261kts
09-Jul-18 20:58 34.080879 -77.953135 192 26077ft 250kts
09-Jul-18 20:59 34.016323 -77.971828 192 28004ft 231kts
09-Jul-18 21:00 33.956784 -77.989015 192 29745ft 219kts
09-Jul-18 21:01 33.892458 -78.007601 193 30194ft 259kts
09-Jul-18 21:02 33.817261 -78.029291 193 30185ft 292kts
09-Jul-18 21:03 33.736500 -78.052528 192 30177ft 305kts
09-Jul-18 21:04 33.653439 -78.076377 192 30177ft 309kts
09-Jul-18 21:05 33.569732 -78.100361 193 30176ft 311kts
09-Jul-18 21:06 33.485920 -78.124329 192 30172ft 311kts
09-Jul-18 21:07 33.401756 -78.148351 193 30176ft 312kts
09-Jul-18 21:08 33.317323 -78.172410 192 30171ft 312kts
09-Jul-18 21:09 33.232958 -78.196390 192 30176ft 312kts
09-Jul-18 21:10 33.148736 -78.220287 193 30176ft 312kts
09-Jul-18 21:11 33.064146 -78.244183 193 30175ft 313kts
09-Jul-18 21:12 32.979824 -78.268022 195 30177ft 312kts
09-Jul-18 21:13 32.896413 -78.291592 195 30181ft 306kts
09-Jul-18 21:14 32.813971 -78.314797 195 30190ft 304kts
09-Jul-18 21:15 32.731863 -78.337869 195 30193ft 303kts
09-Jul-18 21:16 32.650056 -78.360814 194 30193ft 303kts
09-Jul-18 21:17 32.567952 -78.383783 194 30191ft 304kts
09-Jul-18 21:18 32.485845 -78.406728 194 30190ft 304kts
09-Jul-18 21:19 32.403860 -78.430060 195 30192ft 303kts
09-Jul-18 21:20 32.322173 -78.453813 195 30190ft 304kts
09-Jul-18 21:21 32.240272 -78.477610 195 30190ft 304kts
09-Jul-18 21:22 32.158516 -78.501319 195 30191ft 304kts
09-Jul-18 21:23 32.076408 -78.525088 195 30189ft 304kts
09-Jul-18 21:24 31.994665 -78.548710 195 30186ft 304kts
09-Jul-18 21:25 31.912473 -78.572424 195 30183ft 305kts
09-Jul-18 21:26 31.830187 -78.596107 195 30182ft 305kts
09-Jul-18 21:27 31.747635 -78.619826 195 30182ft 305kts
09-Jul-18 21:28 31.665351 -78.643433 195 30182ft 306kts
09-Jul-18 21:29 31.583063 -78.666993 194 30185ft 306kts
09-Jul-18 21:30 31.500326 -78.690651 194 30180ft 306kts
09-Jul-18 21:31 31.417808 -78.714180 194 30184ft 306kts
09-Jul-18 21:32 31.335127 -78.737726 194 30183ft 307kts
09-Jul-18 21:33 31.252194 -78.761300 194 30184ft 307kts
09-Jul-18 21:34 31.169533 -78.784756 194 30182ft 307kts
09-Jul-18 21:35 31.086554 -78.808262 194 30182ft 307kts
09-Jul-18 21:36 31.003817 -78.831653 194 30184ft 306kts
09-Jul-18 21:37 30.921853 -78.854824 193 30181ft 303kts
09-Jul-18 21:38 30.840351 -78.877755 192 30183ft 300kts
09-Jul-18 21:39 30.759641 -78.900438 192 30183ft 299kts
09-Jul-18 21:40 30.678749 -78.923148 192 30183ft 299kts
09-Jul-18 21:41 30.598013 -78.945775 192 30183ft 299kts
09-Jul-18 21:42 30.517496 -78.968298 192 30188ft 299kts
09-Jul-18 21:43 30.436977 -78.990786 192 30202ft 298kts
09-Jul-18 21:44 30.356456 -79.012149 192 30208ft 298kts
09-Jul-18 21:45 30.275549 -79.033356 192 30203ft 298kts
09-Jul-18 21:46 30.194771 -79.054492 192 30199ft 298kts
09-Jul-18 21:47 30.114177 -79.075545 192 30196ft 298kts
09-Jul-18 21:48 30.033414 -79.096606 192 30193ft 298kts
09-Jul-18 21:49 29.952625 -79.117639 192 30189ft 298kts
09-Jul-18 21:50 29.871701 -79.138672 193 30189ft 299kts
09-Jul-18 21:51 29.790712 -79.159442 192 30185ft 299kts
09-Jul-18 21:52 29.709578 -79.179977 193 30183ft 300kts
09-Jul-18 21:53 29.628119 -79.200558 193 30182ft 300kts
09-Jul-18 21:54 29.546582 -79.221127 193 30183ft 300kts
09-Jul-18 21:55 29.465271 -79.241602 193 30182ft 300kts
09-Jul-18 21:56 29.383704 -79.262107 193 30182ft 300kts
09-Jul-18 21:57 29.302137 -79.282579 193 30182ft 300kts
09-Jul-18 21:58 29.220709 -79.302982 193 30182ft 300kts
09-Jul-18 21:59 29.139182 -79.323502 193 30181ft 300kts
09-Jul-18 22:00 29.057873 -79.344270 190 30175ft 301kts
09-Jul-18 22:01 28.975485 -79.364968 190 30183ft 308kts
09-Jul-18 22:02 28.891231 -79.386267 191 30185ft 314kts
09-Jul-18 22:03 28.805564 -79.407884 191 30184ft 317kts
09-Jul-18 22:04 28.719575 -79.429544 190 30183ft 318kts
09-Jul-18 22:05 28.633215 -79.451262 190 30184ft 318kts
09-Jul-18 22:06 28.561312 -79.469316 191 30184ft 319kts
09-Jul-18 22:07 28.475020 -79.490949 190 30184ft 319kts
09-Jul-18 22:08 28.388498 -79.512607 190 30184ft 319kts
09-Jul-18 22:09 28.301559 -79.530520 175 30183ft 316kts
09-Jul-18 22:10 28.218081 -79.504026 160 30162ft 314kts
09-Jul-18 22:11 28.129807 -79.473169 161 28638ft 348kts
09-Jul-18 22:12 28.035747 -79.440421 161 26992ft 360kts
09-Jul-18 22:13 27.940152 -79.407198 161 25313ft 355kts
09-Jul-18 22:14 27.873941 -79.384217 161 24099ft 347kts
09-Jul-18 22:15 27.782717 -79.352607 161 22402ft 342kts
09-Jul-18 22:16 27.692460 -79.321389 162 20711ft 340kts
09-Jul-18 22:17 27.602551 -79.290346 162 19017ft 338kts
09-Jul-18 22:18 27.513877 -79.259779 162 17317ft 329kts
09-Jul-18 22:19 27.428142 -79.230273 162 15612ft 318kts
09-Jul-18 22:20 27.345626 -79.201916 162 13630ft 306kts
09-Jul-18 22:21 27.264999 -79.174260 163 11636ft 302kts
09-Jul-18 22:22 27.185666 -79.147089 163 9661ft 296kts
09-Jul-18 22:23 27.109005 -79.120839 163 7397ft 284kts
09-Jul-18 22:24 27.035366 -79.095679 163 4956ft 267kts
09-Jul-18 22:25 26.966609 -79.072227 163 3047ft 255kts
09-Jul-18 22:26 26.902764 -79.050660 165 1565ft 217kts
09-Jul-18 22:27 26.855529 -79.034979 161 1244ft 183kts
09-Jul-18 22:28 26.809531 -79.016392 151 1334ft 175kts
09-Jul-18 22:29 26.768390 -78.986171 151 1321ft 179kts
09-Jul-18 22:30 26.724541 -78.964723 162 1035ft 158kts
09-Jul-18 22:31 26.684715 -78.954163 170 464ft 110kts
09-Jul-18 22:32 26.679759 -78.972359 283 5ft 31kts
09-Jul-18 22:33 26.678710 -78.972821 106 5ft 18kts
09-Jul-18 22:34 26.676485 -78.964271 107 5ft 37kts
09-Jul-18 22:35 26.676021 -78.961997 341 5ft 0kts
09-Jul-18 22:36 26.676021 -78.961997 341 5ft 0kts
09-Jul-18 22:37 26.676021 -78.961997 341 5ft 0kts
09-Jul-18 22:38 26.676021 -78.961997 341 5ft 0kts
09-Jul-18 22:39 26.676021 -78.961997 341 5ft 0kts
09-Jul-18 22:40 26.676021 -78.961997 341 5ft 0kts
09-Jul-18 22:41 26.676021 -78.961997 341 5ft 0kts
09-Jul-18 22:42 26.676021 -78.961997 341 5ft 0kts
09-Jul-18 22:43 26.676021 -78.961997 341 5ft 0kts
09-Jul-18 22:44 26.676021 -78.961997 341 5ft 0kts
09-Jul-18 22:45 26.676021 -78.961997 341 5ft 0kts
09-Jul-18 22:46 26.676021 -78.961997 341 5ft 0kts

Navigation Log

Ident Type
Flight plan parsing failed, navigation log unavailable